sensor_id;sensor_type;location;lat;lon;timestamp;P1;durP1;ratioP1;P2;durP2;ratioP2
71753;SDS011;59593;51.716;7.016;2022-12-20T00:00:46;4.60;;;2.73;;
71753;SDS011;59593;51.716;7.016;2022-12-20T00:03:12;4.30;;;2.93;;
71753;SDS011;59593;51.716;7.016;2022-12-20T00:05:39;5.40;;;3.20;;
71753;SDS011;59593;51.716;7.016;2022-12-20T00:08:06;5.23;;;3.47;;
71753;SDS011;59593;51.716;7.016;2022-12-20T00:10:39;5.53;;;3.23;;
71753;SDS011;59593;51.716;7.016;2022-12-20T00:13:05;4.77;;;3.00;;
71753;SDS011;59593;51.716;7.016;2022-12-20T00:15:32;5.57;;;3.07;;
71753;SDS011;59593;51.716;7.016;2022-12-20T00:17:58;5.13;;;3.20;;
71753;SDS011;59593;51.716;7.016;2022-12-20T00:20:24;6.60;;;2.97;;
71753;SDS011;59593;51.716;7.016;2022-12-20T00:22:51;3.87;;;2.93;;
71753;SDS011;59593;51.716;7.016;2022-12-20T00:25:16;6.00;;;3.20;;
71753;SDS011;59593;51.716;7.016;2022-12-20T00:27:44;5.00;;;3.10;;
71753;SDS011;59593;51.716;7.016;2022-12-20T00:30:10;4.40;;;2.77;;
71753;SDS011;59593;51.716;7.016;2022-12-20T00:32:36;5.80;;;3.13;;
71753;SDS011;59593;51.716;7.016;2022-12-20T00:35:02;5.23;;;3.23;;
71753;SDS011;59593;51.716;7.016;2022-12-20T00:37:28;3.90;;;3.10;;
71753;SDS011;59593;51.716;7.016;2022-12-20T00:39:53;3.67;;;3.00;;
71753;SDS011;59593;51.716;7.016;2022-12-20T00:42:19;4.77;;;2.57;;
71753;SDS011;59593;51.716;7.016;2022-12-20T00:44:45;5.03;;;2.63;;
71753;SDS011;59593;51.716;7.016;2022-12-20T00:47:10;3.80;;;2.47;;
71753;SDS011;59593;51.716;7.016;2022-12-20T00:49:36;4.70;;;2.40;;
71753;SDS011;59593;51.716;7.016;2022-12-20T00:52:01;4.87;;;2.70;;
71753;SDS011;59593;51.716;7.016;2022-12-20T00:54:27;3.67;;;2.50;;
71753;SDS011;59593;51.716;7.016;2022-12-20T00:56:52;4.43;;;2.70;;
71753;SDS011;59593;51.716;7.016;2022-12-20T00:59:19;3.47;;;2.40;;
71753;SDS011;59593;51.716;7.016;2022-12-20T01:01:45;5.50;;;3.00;;
71753;SDS011;59593;51.716;7.016;2022-12-20T01:04:11;3.70;;;2.60;;
71753;SDS011;59593;51.716;7.016;2022-12-20T01:06:37;6.10;;;2.67;;
71753;SDS011;59593;51.716;7.016;2022-12-20T01:09:03;4.67;;;2.40;;
71753;SDS011;59593;51.716;7.016;2022-12-20T01:11:30;2.77;;;2.23;;
71753;SDS011;59593;51.716;7.016;2022-12-20T01:13:59;4.13;;;2.50;;
71753;SDS011;59593;51.716;7.016;2022-12-20T01:16:28;6.57;;;2.50;;
71753;SDS011;59593;51.716;7.016;2022-12-20T01:18:56;3.03;;;2.10;;
71753;SDS011;59593;51.716;7.016;2022-12-20T01:21:23;4.77;;;2.43;;
71753;SDS011;59593;51.716;7.016;2022-12-20T01:23:50;3.97;;;2.33;;
71753;SDS011;59593;51.716;7.016;2022-12-20T01:26:18;4.13;;;2.30;;
71753;SDS011;59593;51.716;7.016;2022-12-20T01:28:46;3.33;;;2.10;;
71753;SDS011;59593;51.716;7.016;2022-12-20T01:31:13;4.77;;;2.50;;
71753;SDS011;59593;51.716;7.016;2022-12-20T01:33:41;3.97;;;2.40;;
71753;SDS011;59593;51.716;7.016;2022-12-20T01:36:09;3.67;;;2.30;;
71753;SDS011;59593;51.716;7.016;2022-12-20T01:38:36;3.07;;;2.27;;
71753;SDS011;59593;51.716;7.016;2022-12-20T01:41:02;3.50;;;2.30;;
71753;SDS011;59593;51.716;7.016;2022-12-20T01:46:12;4.80;;;2.40;;
71753;SDS011;59593;51.716;7.016;2022-12-20T01:48:38;3.40;;;2.37;;
71753;SDS011;59593;51.716;7.016;2022-12-20T01:51:05;3.53;;;2.00;;
71753;SDS011;59593;51.716;7.016;2022-12-20T01:53:30;3.37;;;2.17;;
71753;SDS011;59593;51.716;7.016;2022-12-20T01:55:57;4.57;;;2.53;;
71753;SDS011;59593;51.716;7.016;2022-12-20T01:58:27;3.80;;;2.60;;
71753;SDS011;59593;51.716;7.016;2022-12-20T02:00:53;4.57;;;2.50;;
71753;SDS011;59593;51.716;7.016;2022-12-20T02:03:19;5.20;;;2.40;;
71753;SDS011;59593;51.716;7.016;2022-12-20T02:05:45;3.67;;;2.40;;
71753;SDS011;59593;51.716;7.016;2022-12-20T02:08:11;6.23;;;2.70;;
71753;SDS011;59593;51.716;7.016;2022-12-20T02:13:09;3.93;;;2.43;;
71753;SDS011;59593;51.716;7.016;2022-12-20T02:15:47;5.17;;;2.20;;
71753;SDS011;59593;51.716;7.016;2022-12-20T02:18:27;3.27;;;2.30;;
71753;SDS011;59593;51.716;7.016;2022-12-20T02:29:33;2.37;;;1.97;;
71753;SDS011;59593;51.716;7.016;2022-12-20T02:32:15;4.33;;;2.03;;
71753;SDS011;59593;51.716;7.016;2022-12-20T02:34:48;3.50;;;2.10;;
71753;SDS011;59593;51.716;7.016;2022-12-20T02:37:13;3.10;;;2.30;;
71753;SDS011;59593;51.716;7.016;2022-12-20T02:39:39;3.00;;;2.00;;
71753;SDS011;59593;51.716;7.016;2022-12-20T02:42:14;4.10;;;2.60;;
71753;SDS011;59593;51.716;7.016;2022-12-20T02:44:45;2.53;;;1.97;;
71753;SDS011;59593;51.716;7.016;2022-12-20T02:47:36;3.50;;;2.30;;
71753;SDS011;59593;51.716;7.016;2022-12-20T02:50:06;3.10;;;1.93;;
71753;SDS011;59593;51.716;7.016;2022-12-20T02:52:34;2.50;;;1.87;;
71753;SDS011;59593;51.716;7.016;2022-12-20T02:55:00;3.30;;;2.20;;
71753;SDS011;59593;51.716;7.016;2022-12-20T03:00:04;4.83;;;2.10;;
71753;SDS011;59593;51.716;7.016;2022-12-20T03:02:38;5.60;;;2.80;;
71753;SDS011;59593;51.716;7.016;2022-12-20T03:05:25;4.23;;;2.90;;
71753;SDS011;59593;51.716;7.016;2022-12-20T03:07:51;4.97;;;2.57;;
71753;SDS011;59593;51.716;7.016;2022-12-20T03:10:17;5.20;;;2.70;;
71753;SDS011;59593;51.716;7.016;2022-12-20T03:12:44;6.10;;;2.80;;
71753;SDS011;59593;51.716;7.016;2022-12-20T03:15:10;4.50;;;2.50;;
71753;SDS011;59593;51.716;7.016;2022-12-20T03:17:36;4.73;;;2.83;;
71753;SDS011;59593;51.716;7.016;2022-12-20T03:20:03;4.80;;;2.90;;
71753;SDS011;59593;51.716;7.016;2022-12-20T03:22:30;3.97;;;2.90;;
71753;SDS011;59593;51.716;7.016;2022-12-20T03:24:57;6.80;;;3.23;;
71753;SDS011;59593;51.716;7.016;2022-12-20T03:27:23;5.77;;;3.07;;
71753;SDS011;59593;51.716;7.016;2022-12-20T03:29:49;6.20;;;3.03;;
71753;SDS011;59593;51.716;7.016;2022-12-20T03:32:15;6.73;;;3.17;;
71753;SDS011;59593;51.716;7.016;2022-12-20T03:34:41;4.87;;;3.33;;
71753;SDS011;59593;51.716;7.016;2022-12-20T03:37:06;5.73;;;3.20;;
71753;SDS011;59593;51.716;7.016;2022-12-20T03:39:32;4.33;;;3.30;;
71753;SDS011;59593;51.716;7.016;2022-12-20T03:41:57;3.63;;;2.83;;
71753;SDS011;59593;51.716;7.016;2022-12-20T03:44:23;5.03;;;3.30;;
71753;SDS011;59593;51.716;7.016;2022-12-20T03:46:49;4.77;;;3.30;;
71753;SDS011;59593;51.716;7.016;2022-12-20T03:49:14;4.47;;;3.30;;
71753;SDS011;59593;51.716;7.016;2022-12-20T03:51:40;4.87;;;3.20;;
71753;SDS011;59593;51.716;7.016;2022-12-20T03:54:06;7.00;;;3.27;;
71753;SDS011;59593;51.716;7.016;2022-12-20T03:56:31;5.30;;;3.37;;
71753;SDS011;59593;51.716;7.016;2022-12-20T03:58:57;4.07;;;3.17;;
71753;SDS011;59593;51.716;7.016;2022-12-20T04:01:24;3.73;;;3.03;;
71753;SDS011;59593;51.716;7.016;2022-12-20T04:03:51;4.70;;;3.07;;
71753;SDS011;59593;51.716;7.016;2022-12-20T04:06:17;4.43;;;3.13;;
71753;SDS011;59593;51.716;7.016;2022-12-20T04:08:43;12.60;;;7.23;;
71753;SDS011;59593;51.716;7.016;2022-12-20T04:11:09;10.03;;;6.83;;
71753;SDS011;59593;51.716;7.016;2022-12-20T04:13:45;8.17;;;6.20;;
71753;SDS011;59593;51.716;7.016;2022-12-20T04:16:16;9.00;;;4.90;;
71753;SDS011;59593;51.716;7.016;2022-12-20T04:18:42;11.50;;;8.13;;
71753;SDS011;59593;51.716;7.016;2022-12-20T04:21:09;5.23;;;4.73;;
71753;SDS011;59593;51.716;7.016;2022-12-20T04:23:35;8.17;;;4.93;;
71753;SDS011;59593;51.716;7.016;2022-12-20T04:26:03;5.40;;;3.70;;
71753;SDS011;59593;51.716;7.016;2022-12-20T04:28:30;7.03;;;3.40;;
71753;SDS011;59593;51.716;7.016;2022-12-20T04:30:56;6.30;;;3.63;;
71753;SDS011;59593;51.716;7.016;2022-12-20T04:33:22;7.57;;;3.60;;
71753;SDS011;59593;51.716;7.016;2022-12-20T04:35:48;5.00;;;3.40;;
71753;SDS011;59593;51.716;7.016;2022-12-20T04:38:14;5.30;;;3.70;;
71753;SDS011;59593;51.716;7.016;2022-12-20T04:40:40;5.37;;;3.57;;
71753;SDS011;59593;51.716;7.016;2022-12-20T04:43:06;5.60;;;3.67;;
71753;SDS011;59593;51.716;7.016;2022-12-20T04:45:32;8.33;;;3.70;;
71753;SDS011;59593;51.716;7.016;2022-12-20T04:47:58;5.40;;;3.60;;
71753;SDS011;59593;51.716;7.016;2022-12-20T04:50:23;5.37;;;3.73;;
71753;SDS011;59593;51.716;7.016;2022-12-20T04:52:49;5.17;;;3.40;;
71753;SDS011;59593;51.716;7.016;2022-12-20T04:55:40;5.43;;;3.83;;
71753;SDS011;59593;51.716;7.016;2022-12-20T04:58:06;7.37;;;3.90;;
71753;SDS011;59593;51.716;7.016;2022-12-20T05:00:32;4.13;;;3.33;;
71753;SDS011;59593;51.716;7.016;2022-12-20T05:02:58;6.43;;;3.50;;
71753;SDS011;59593;51.716;7.016;2022-12-20T05:05:24;5.47;;;3.67;;
71753;SDS011;59593;51.716;7.016;2022-12-20T05:07:49;4.57;;;3.30;;
71753;SDS011;59593;51.716;7.016;2022-12-20T05:10:16;5.87;;;3.40;;
71753;SDS011;59593;51.716;7.016;2022-12-20T05:12:42;6.13;;;3.80;;
71753;SDS011;59593;51.716;7.016;2022-12-20T05:15:08;6.70;;;3.83;;
71753;SDS011;59593;51.716;7.016;2022-12-20T05:17:35;4.90;;;3.37;;
71753;SDS011;59593;51.716;7.016;2022-12-20T05:20:00;6.03;;;3.60;;
71753;SDS011;59593;51.716;7.016;2022-12-20T05:22:26;5.37;;;3.90;;
71753;SDS011;59593;51.716;7.016;2022-12-20T05:25:10;6.13;;;3.80;;
71753;SDS011;59593;51.716;7.016;2022-12-20T05:27:55;5.57;;;3.63;;
71753;SDS011;59593;51.716;7.016;2022-12-20T05:30:20;6.17;;;3.70;;
71753;SDS011;59593;51.716;7.016;2022-12-20T05:32:46;6.17;;;3.97;;
71753;SDS011;59593;51.716;7.016;2022-12-20T05:35:12;10.70;;;6.30;;
71753;SDS011;59593;51.716;7.016;2022-12-20T05:37:38;7.27;;;4.13;;
71753;SDS011;59593;51.716;7.016;2022-12-20T05:40:04;5.97;;;3.90;;
71753;SDS011;59593;51.716;7.016;2022-12-20T05:42:30;5.43;;;3.57;;
71753;SDS011;59593;51.716;7.016;2022-12-20T05:44:56;5.50;;;3.60;;
71753;SDS011;59593;51.716;7.016;2022-12-20T05:47:22;7.40;;;5.13;;
71753;SDS011;59593;51.716;7.016;2022-12-20T05:49:47;5.60;;;4.27;;
71753;SDS011;59593;51.716;7.016;2022-12-20T05:52:13;7.83;;;4.50;;
71753;SDS011;59593;51.716;7.016;2022-12-20T05:54:38;6.17;;;4.20;;
71753;SDS011;59593;51.716;7.016;2022-12-20T05:57:04;6.27;;;4.53;;
71753;SDS011;59593;51.716;7.016;2022-12-20T05:59:29;8.03;;;5.23;;
71753;SDS011;59593;51.716;7.016;2022-12-20T06:01:55;6.93;;;4.20;;
71753;SDS011;59593;51.716;7.016;2022-12-20T06:04:21;8.53;;;5.10;;
71753;SDS011;59593;51.716;7.016;2022-12-20T06:06:46;6.13;;;4.20;;
71753;SDS011;59593;51.716;7.016;2022-12-20T06:09:12;4.80;;;3.70;;
71753;SDS011;59593;51.716;7.016;2022-12-20T06:11:38;5.73;;;3.30;;
71753;SDS011;59593;51.716;7.016;2022-12-20T06:14:03;5.70;;;3.17;;
71753;SDS011;59593;51.716;7.016;2022-12-20T06:16:29;5.93;;;3.60;;
71753;SDS011;59593;51.716;7.016;2022-12-20T06:18:55;4.90;;;3.17;;
71753;SDS011;59593;51.716;7.016;2022-12-20T06:21:21;5.43;;;3.50;;
71753;SDS011;59593;51.716;7.016;2022-12-20T06:23:47;4.37;;;3.50;;
71753;SDS011;59593;51.716;7.016;2022-12-20T06:26:12;4.27;;;2.90;;
71753;SDS011;59593;51.716;7.016;2022-12-20T06:28:38;11.57;;;6.67;;
71753;SDS011;59593;51.716;7.016;2022-12-20T06:31:09;11.87;;;7.60;;
71753;SDS011;59593;51.716;7.016;2022-12-20T06:33:35;10.83;;;6.33;;
71753;SDS011;59593;51.716;7.016;2022-12-20T06:36:01;10.73;;;6.83;;
71753;SDS011;59593;51.716;7.016;2022-12-20T06:38:27;8.00;;;5.30;;
71753;SDS011;59593;51.716;7.016;2022-12-20T06:40:53;7.33;;;3.80;;
71753;SDS011;59593;51.716;7.016;2022-12-20T06:43:18;6.23;;;3.77;;
71753;SDS011;59593;51.716;7.016;2022-12-20T06:45:44;4.43;;;3.27;;
71753;SDS011;59593;51.716;7.016;2022-12-20T06:48:10;5.27;;;3.07;;
71753;SDS011;59593;51.716;7.016;2022-12-20T06:50:38;4.37;;;3.00;;
71753;SDS011;59593;51.716;7.016;2022-12-20T06:53:04;5.80;;;3.70;;
71753;SDS011;59593;51.716;7.016;2022-12-20T06:55:30;5.80;;;3.40;;
71753;SDS011;59593;51.716;7.016;2022-12-20T06:57:56;5.37;;;3.20;;
71753;SDS011;59593;51.716;7.016;2022-12-20T07:00:22;6.70;;;3.67;;
71753;SDS011;59593;51.716;7.016;2022-12-20T07:02:48;6.10;;;3.43;;
71753;SDS011;59593;51.716;7.016;2022-12-20T07:05:13;7.13;;;4.40;;
71753;SDS011;59593;51.716;7.016;2022-12-20T07:07:39;9.67;;;6.27;;
71753;SDS011;59593;51.716;7.016;2022-12-20T07:10:05;6.30;;;3.53;;
71753;SDS011;59593;51.716;7.016;2022-12-20T07:12:31;8.97;;;4.67;;
71753;SDS011;59593;51.716;7.016;2022-12-20T07:14:57;6.60;;;3.90;;
71753;SDS011;59593;51.716;7.016;2022-12-20T07:17:23;10.07;;;5.70;;
71753;SDS011;59593;51.716;7.016;2022-12-20T07:19:49;6.53;;;4.80;;
71753;SDS011;59593;51.716;7.016;2022-12-20T07:22:15;6.83;;;3.97;;
71753;SDS011;59593;51.716;7.016;2022-12-20T07:24:40;11.27;;;6.57;;
71753;SDS011;59593;51.716;7.016;2022-12-20T07:27:06;8.13;;;5.53;;
71753;SDS011;59593;51.716;7.016;2022-12-20T07:29:32;8.13;;;4.33;;
71753;SDS011;59593;51.716;7.016;2022-12-20T07:31:57;6.00;;;4.30;;
71753;SDS011;59593;51.716;7.016;2022-12-20T07:34:26;5.90;;;3.70;;
71753;SDS011;59593;51.716;7.016;2022-12-20T07:36:54;5.30;;;3.23;;
71753;SDS011;59593;51.716;7.016;2022-12-20T07:39:20;4.93;;;3.00;;
71753;SDS011;59593;51.716;7.016;2022-12-20T07:41:45;3.80;;;2.87;;
71753;SDS011;59593;51.716;7.016;2022-12-20T07:44:13;4.40;;;3.17;;
71753;SDS011;59593;51.716;7.016;2022-12-20T07:46:39;5.87;;;2.90;;
71753;SDS011;59593;51.716;7.016;2022-12-20T07:49:04;5.50;;;3.00;;
71753;SDS011;59593;51.716;7.016;2022-12-20T07:51:30;6.47;;;3.40;;
71753;SDS011;59593;51.716;7.016;2022-12-20T07:54:02;6.20;;;4.20;;
71753;SDS011;59593;51.716;7.016;2022-12-20T07:56:33;6.37;;;4.50;;
71753;SDS011;59593;51.716;7.016;2022-12-20T07:59:00;6.67;;;4.27;;
71753;SDS011;59593;51.716;7.016;2022-12-20T08:01:26;11.40;;;7.20;;
71753;SDS011;59593;51.716;7.016;2022-12-20T08:03:55;9.60;;;5.80;;
71753;SDS011;59593;51.716;7.016;2022-12-20T08:06:25;14.23;;;7.13;;
71753;SDS011;59593;51.716;7.016;2022-12-20T08:08:52;8.27;;;5.50;;
71753;SDS011;59593;51.716;7.016;2022-12-20T08:11:20;12.37;;;6.97;;
71753;SDS011;59593;51.716;7.016;2022-12-20T08:13:47;9.10;;;5.90;;
71753;SDS011;59593;51.716;7.016;2022-12-20T08:16:14;10.73;;;6.37;;
71753;SDS011;59593;51.716;7.016;2022-12-20T08:18:40;13.13;;;8.17;;
71753;SDS011;59593;51.716;7.016;2022-12-20T08:21:06;12.70;;;8.07;;
71753;SDS011;59593;51.716;7.016;2022-12-20T08:23:32;8.13;;;4.40;;
71753;SDS011;59593;51.716;7.016;2022-12-20T08:25:59;6.17;;;4.80;;
71753;SDS011;59593;51.716;7.016;2022-12-20T08:28:25;7.30;;;4.30;;
71753;SDS011;59593;51.716;7.016;2022-12-20T08:30:51;3.87;;;2.87;;
71753;SDS011;59593;51.716;7.016;2022-12-20T08:33:17;5.10;;;3.20;;
71753;SDS011;59593;51.716;7.016;2022-12-20T08:35:43;5.60;;;4.30;;
71753;SDS011;59593;51.716;7.016;2022-12-20T08:38:09;5.83;;;3.30;;
71753;SDS011;59593;51.716;7.016;2022-12-20T08:40:35;4.57;;;3.00;;
71753;SDS011;59593;51.716;7.016;2022-12-20T08:43:00;6.80;;;3.17;;
71753;SDS011;59593;51.716;7.016;2022-12-20T08:45:26;4.73;;;2.77;;
71753;SDS011;59593;51.716;7.016;2022-12-20T08:47:52;4.37;;;2.80;;
71753;SDS011;59593;51.716;7.016;2022-12-20T08:50:17;5.43;;;4.20;;
71753;SDS011;59593;51.716;7.016;2022-12-20T08:52:43;5.70;;;2.80;;
71753;SDS011;59593;51.716;7.016;2022-12-20T08:55:09;5.20;;;2.47;;
71753;SDS011;59593;51.716;7.016;2022-12-20T08:57:34;4.40;;;2.60;;
71753;SDS011;59593;51.716;7.016;2022-12-20T09:00:00;5.27;;;3.40;;
71753;SDS011;59593;51.716;7.016;2022-12-20T09:02:26;3.57;;;2.50;;
71753;SDS011;59593;51.716;7.016;2022-12-20T09:04:52;4.63;;;3.03;;
71753;SDS011;59593;51.716;7.016;2022-12-20T09:07:18;5.47;;;3.47;;
71753;SDS011;59593;51.716;7.016;2022-12-20T09:09:45;4.77;;;3.70;;
71753;SDS011;59593;51.716;7.016;2022-12-20T09:12:10;3.77;;;2.70;;
71753;SDS011;59593;51.716;7.016;2022-12-20T09:14:36;5.80;;;3.10;;
71753;SDS011;59593;51.716;7.016;2022-12-20T09:17:02;4.40;;;2.90;;
71753;SDS011;59593;51.716;7.016;2022-12-20T09:19:27;5.43;;;2.50;;
71753;SDS011;59593;51.716;7.016;2022-12-20T09:21:53;6.97;;;3.13;;
71753;SDS011;59593;51.716;7.016;2022-12-20T09:24:19;5.63;;;3.03;;
71753;SDS011;59593;51.716;7.016;2022-12-20T09:26:45;6.80;;;2.90;;
71753;SDS011;59593;51.716;7.016;2022-12-20T09:29:10;5.03;;;2.80;;
71753;SDS011;59593;51.716;7.016;2022-12-20T09:31:36;5.10;;;3.00;;
71753;SDS011;59593;51.716;7.016;2022-12-20T09:34:01;4.80;;;2.77;;
71753;SDS011;59593;51.716;7.016;2022-12-20T09:36:27;6.40;;;3.00;;
71753;SDS011;59593;51.716;7.016;2022-12-20T09:38:54;4.33;;;3.00;;
71753;SDS011;59593;51.716;7.016;2022-12-20T09:44:03;7.57;;;3.83;;
71753;SDS011;59593;51.716;7.016;2022-12-20T09:46:35;4.73;;;2.70;;
71753;SDS011;59593;51.716;7.016;2022-12-20T09:49:03;5.93;;;3.10;;
71753;SDS011;59593;51.716;7.016;2022-12-20T09:54:17;6.97;;;2.73;;
71753;SDS011;59593;51.716;7.016;2022-12-20T09:56:46;7.03;;;3.10;;
71753;SDS011;59593;51.716;7.016;2022-12-20T09:59:22;5.97;;;3.50;;
71753;SDS011;59593;51.716;7.016;2022-12-20T10:01:48;6.00;;;3.40;;
71753;SDS011;59593;51.716;7.016;2022-12-20T10:04:27;12.07;;;6.97;;
71753;SDS011;59593;51.716;7.016;2022-12-20T10:15:32;5.07;;;2.43;;
71753;SDS011;59593;51.716;7.016;2022-12-20T10:21:06;4.43;;;2.50;;
71753;SDS011;59593;51.716;7.016;2022-12-20T10:23:45;4.87;;;2.80;;
71753;SDS011;59593;51.716;7.016;2022-12-20T10:26:28;4.63;;;2.60;;
71753;SDS011;59593;51.716;7.016;2022-12-20T10:28:55;6.50;;;2.70;;
71753;SDS011;59593;51.716;7.016;2022-12-20T10:31:21;3.90;;;2.67;;
71753;SDS011;59593;51.716;7.016;2022-12-20T10:33:47;7.30;;;2.70;;
71753;SDS011;59593;51.716;7.016;2022-12-20T10:36:20;4.60;;;2.77;;
71753;SDS011;59593;51.716;7.016;2022-12-20T10:38:58;8.93;;;4.43;;
71753;SDS011;59593;51.716;7.016;2022-12-20T10:41:31;7.70;;;3.93;;
71753;SDS011;59593;51.716;7.016;2022-12-20T10:44:05;10.23;;;5.50;;
71753;SDS011;59593;51.716;7.016;2022-12-20T10:46:52;6.38;;;4.40;;
71753;SDS011;59593;51.716;7.016;2022-12-20T10:49:36;4.00;;;3.30;;
71753;SDS011;59593;51.716;7.016;2022-12-20T10:54:34;9.30;;;5.00;;
71753;SDS011;59593;51.716;7.016;2022-12-20T10:57:02;6.17;;;3.30;;
71753;SDS011;59593;51.716;7.016;2022-12-20T11:02:25;6.07;;;3.90;;
71753;SDS011;59593;51.716;7.016;2022-12-20T11:07:37;4.33;;;3.63;;
71753;SDS011;59593;51.716;7.016;2022-12-20T11:10:19;5.80;;;3.90;;
71753;SDS011;59593;51.716;7.016;2022-12-20T11:15:20;5.17;;;3.90;;
71753;SDS011;59593;51.716;7.016;2022-12-20T11:18:16;3.27;;;2.50;;
71753;SDS011;59593;51.716;7.016;2022-12-20T11:31:43;6.03;;;2.20;;
71753;SDS011;59593;51.716;7.016;2022-12-20T11:40:03;3.67;;;2.87;;
71753;SDS011;59593;51.716;7.016;2022-12-20T11:45:20;4.00;;;3.13;;
71753;SDS011;59593;51.716;7.016;2022-12-20T11:48:02;4.20;;;2.97;;
71753;SDS011;59593;51.716;7.016;2022-12-20T12:01:31;4.97;;;2.33;;
71753;SDS011;59593;51.716;7.016;2022-12-20T12:04:08;5.93;;;3.13;;
71753;SDS011;59593;51.716;7.016;2022-12-20T12:06:43;3.20;;;2.67;;
71753;SDS011;59593;51.716;7.016;2022-12-20T12:11:48;4.60;;;3.10;;
71753;SDS011;59593;51.716;7.016;2022-12-20T12:17:36;5.03;;;2.70;;
71753;SDS011;59593;51.716;7.016;2022-12-20T12:20:32;5.23;;;2.70;;
71753;SDS011;59593;51.716;7.016;2022-12-20T12:23:30;3.87;;;2.90;;
71753;SDS011;59593;51.716;7.016;2022-12-20T12:26:05;3.72;;;2.38;;
71753;SDS011;59593;51.716;7.016;2022-12-20T12:28:37;3.47;;;2.67;;
71753;SDS011;59593;51.716;7.016;2022-12-20T12:31:03;4.93;;;2.83;;
71753;SDS011;59593;51.716;7.016;2022-12-20T12:33:42;4.97;;;3.17;;
71753;SDS011;59593;51.716;7.016;2022-12-20T12:44:31;4.83;;;2.87;;
71753;SDS011;59593;51.716;7.016;2022-12-20T12:47:05;6.00;;;2.83;;
71753;SDS011;59593;51.716;7.016;2022-12-20T12:49:45;5.20;;;3.13;;
71753;SDS011;59593;51.716;7.016;2022-12-20T12:52:35;5.17;;;3.00;;
71753;SDS011;59593;51.716;7.016;2022-12-20T13:00:51;5.67;;;2.73;;
71753;SDS011;59593;51.716;7.016;2022-12-20T13:11:39;6.83;;;2.90;;
71753;SDS011;59593;51.716;7.016;2022-12-20T13:21:57;5.90;;;2.80;;
71753;SDS011;59593;51.716;7.016;2022-12-20T13:27:34;5.83;;;2.70;;
71753;SDS011;59593;51.716;7.016;2022-12-20T13:48:49;6.90;;;4.03;;
71753;SDS011;59593;51.716;7.016;2022-12-20T13:51:23;9.70;;;3.73;;
71753;SDS011;59593;51.716;7.016;2022-12-20T13:53:51;9.53;;;3.90;;
71753;SDS011;59593;51.716;7.016;2022-12-20T13:56:32;5.30;;;3.83;;
71753;SDS011;59593;51.716;7.016;2022-12-20T13:59:06;7.00;;;3.90;;
71753;SDS011;59593;51.716;7.016;2022-12-20T14:01:56;6.07;;;3.80;;
71753;SDS011;59593;51.716;7.016;2022-12-20T14:04:26;8.17;;;4.53;;
71753;SDS011;59593;51.716;7.016;2022-12-20T14:07:04;8.40;;;4.60;;
71753;SDS011;59593;51.716;7.016;2022-12-20T14:09:31;7.37;;;5.00;;
71753;SDS011;59593;51.716;7.016;2022-12-20T14:14:43;7.87;;;4.90;;
71753;SDS011;59593;51.716;7.016;2022-12-20T14:22:33;6.37;;;5.23;;
71753;SDS011;59593;51.716;7.016;2022-12-20T14:25:00;12.50;;;6.63;;
71753;SDS011;59593;51.716;7.016;2022-12-20T14:27:29;11.37;;;6.53;;
71753;SDS011;59593;51.716;7.016;2022-12-20T14:30:00;9.17;;;6.33;;
71753;SDS011;59593;51.716;7.016;2022-12-20T14:32:26;10.73;;;6.60;;
71753;SDS011;59593;51.716;7.016;2022-12-20T14:34:52;11.90;;;8.27;;
71753;SDS011;59593;51.716;7.016;2022-12-20T14:39:56;14.90;;;9.47;;
71753;SDS011;59593;51.716;7.016;2022-12-20T14:42:31;7.90;;;5.70;;
71753;SDS011;59593;51.716;7.016;2022-12-20T14:47:33;6.80;;;5.43;;
71753;SDS011;59593;51.716;7.016;2022-12-20T14:50:02;7.40;;;5.37;;
71753;SDS011;59593;51.716;7.016;2022-12-20T14:54:57;8.33;;;5.67;;
71753;SDS011;59593;51.716;7.016;2022-12-20T15:02:50;10.70;;;7.00;;
71753;SDS011;59593;51.716;7.016;2022-12-20T15:08:36;10.40;;;6.13;;
71753;SDS011;59593;51.716;7.016;2022-12-20T15:13:34;10.60;;;7.27;;
71753;SDS011;59593;51.716;7.016;2022-12-20T15:16:04;8.70;;;6.43;;
71753;SDS011;59593;51.716;7.016;2022-12-20T15:18:38;7.03;;;5.33;;
71753;SDS011;59593;51.716;7.016;2022-12-20T15:21:04;9.30;;;5.97;;
71753;SDS011;59593;51.716;7.016;2022-12-20T15:23:34;8.33;;;6.57;;
71753;SDS011;59593;51.716;7.016;2022-12-20T15:26:00;12.23;;;7.07;;
71753;SDS011;59593;51.716;7.016;2022-12-20T15:28:26;8.27;;;6.30;;
71753;SDS011;59593;51.716;7.016;2022-12-20T15:30:52;10.67;;;6.20;;
71753;SDS011;59593;51.716;7.016;2022-12-20T15:33:22;8.43;;;7.00;;
71753;SDS011;59593;51.716;7.016;2022-12-20T15:35:52;12.87;;;7.93;;
71753;SDS011;59593;51.716;7.016;2022-12-20T15:38:20;13.00;;;8.53;;
71753;SDS011;59593;51.716;7.016;2022-12-20T15:40:50;14.17;;;8.77;;
71753;SDS011;59593;51.716;7.016;2022-12-20T15:43:19;12.40;;;8.40;;
71753;SDS011;59593;51.716;7.016;2022-12-20T15:45:47;10.37;;;7.33;;
71753;SDS011;59593;51.716;7.016;2022-12-20T15:48:16;12.57;;;7.80;;
71753;SDS011;59593;51.716;7.016;2022-12-20T15:50:48;9.17;;;6.77;;
71753;SDS011;59593;51.716;7.016;2022-12-20T15:53:20;8.13;;;6.87;;
71753;SDS011;59593;51.716;7.016;2022-12-20T15:55:57;13.97;;;9.23;;
71753;SDS011;59593;51.716;7.016;2022-12-20T15:58:23;17.33;;;9.93;;
71753;SDS011;59593;51.716;7.016;2022-12-20T16:00:50;12.83;;;8.57;;
71753;SDS011;59593;51.716;7.016;2022-12-20T16:03:20;10.43;;;6.90;;
71753;SDS011;59593;51.716;7.016;2022-12-20T16:05:48;9.10;;;6.37;;
71753;SDS011;59593;51.716;7.016;2022-12-20T16:08:15;7.53;;;5.97;;
71753;SDS011;59593;51.716;7.016;2022-12-20T16:10:42;9.30;;;5.87;;
71753;SDS011;59593;51.716;7.016;2022-12-20T16:13:13;9.70;;;6.47;;
71753;SDS011;59593;51.716;7.016;2022-12-20T16:15:45;13.03;;;8.97;;
71753;SDS011;59593;51.716;7.016;2022-12-20T16:18:11;10.50;;;8.43;;
71753;SDS011;59593;51.716;7.016;2022-12-20T16:20:37;10.10;;;6.87;;
71753;SDS011;59593;51.716;7.016;2022-12-20T16:23:03;13.27;;;10.17;;
71753;SDS011;59593;51.716;7.016;2022-12-20T16:25:32;12.27;;;7.40;;
71753;SDS011;59593;51.716;7.016;2022-12-20T16:27:59;9.27;;;7.80;;
71753;SDS011;59593;51.716;7.016;2022-12-20T16:30:25;10.83;;;6.87;;
71753;SDS011;59593;51.716;7.016;2022-12-20T16:32:51;11.03;;;7.27;;
71753;SDS011;59593;51.716;7.016;2022-12-20T16:35:21;9.50;;;6.97;;
71753;SDS011;59593;51.716;7.016;2022-12-20T16:37:55;13.03;;;7.00;;
71753;SDS011;59593;51.716;7.016;2022-12-20T16:40:22;10.20;;;6.87;;
71753;SDS011;59593;51.716;7.016;2022-12-20T16:42:50;11.77;;;7.20;;
71753;SDS011;59593;51.716;7.016;2022-12-20T16:45:18;12.23;;;7.60;;
71753;SDS011;59593;51.716;7.016;2022-12-20T16:47:46;10.23;;;7.40;;
71753;SDS011;59593;51.716;7.016;2022-12-20T16:50:13;10.63;;;8.53;;
71753;SDS011;59593;51.716;7.016;2022-12-20T16:52:39;12.07;;;8.93;;
71753;SDS011;59593;51.716;7.016;2022-12-20T16:55:06;12.47;;;8.37;;
71753;SDS011;59593;51.716;7.016;2022-12-20T16:57:36;15.23;;;8.93;;
71753;SDS011;59593;51.716;7.016;2022-12-20T17:00:02;10.43;;;8.43;;
71753;SDS011;59593;51.716;7.016;2022-12-20T17:02:29;12.20;;;9.43;;
71753;SDS011;59593;51.716;7.016;2022-12-20T17:04:57;11.47;;;9.10;;
71753;SDS011;59593;51.716;7.016;2022-12-20T17:07:23;13.63;;;9.80;;
71753;SDS011;59593;51.716;7.016;2022-12-20T17:09:49;15.37;;;11.30;;
71753;SDS011;59593;51.716;7.016;2022-12-20T17:12:15;13.07;;;11.03;;
71753;SDS011;59593;51.716;7.016;2022-12-20T17:14:42;12.80;;;11.37;;
71753;SDS011;59593;51.716;7.016;2022-12-20T17:17:08;14.47;;;10.47;;
71753;SDS011;59593;51.716;7.016;2022-12-20T17:19:34;12.77;;;10.47;;
71753;SDS011;59593;51.716;7.016;2022-12-20T17:22:00;13.67;;;10.63;;
71753;SDS011;59593;51.716;7.016;2022-12-20T17:24:27;15.50;;;11.80;;
71753;SDS011;59593;51.716;7.016;2022-12-20T17:26:53;15.33;;;10.07;;
71753;SDS011;59593;51.716;7.016;2022-12-20T17:29:19;13.13;;;10.17;;
71753;SDS011;59593;51.716;7.016;2022-12-20T17:31:45;12.93;;;8.50;;